sensor_id;sensor_type;location;lat;lon;timestamp;temperature;humidity
14236;DHT22;7202;50.718;7.072;2023-10-19T00:00:57;11.40;99.90
14236;DHT22;7202;50.718;7.072;2023-10-19T00:03:24;11.40;99.90
14236;DHT22;7202;50.718;7.072;2023-10-19T00:05:55;11.40;99.90
14236;DHT22;7202;50.718;7.072;2023-10-19T00:08:23;11.50;99.90
14236;DHT22;7202;50.718;7.072;2023-10-19T00:10:53;11.50;99.90
14236;DHT22;7202;50.718;7.072;2023-10-19T00:13:31;11.50;99.90
14236;DHT22;7202;50.718;7.072;2023-10-19T00:15:59;11.60;99.90
14236;DHT22;7202;50.718;7.072;2023-10-19T00:18:28;11.60;99.90
14236;DHT22;7202;50.718;7.072;2023-10-19T00:21:00;11.60;99.90
14236;DHT22;7202;50.718;7.072;2023-10-19T00:23:38;11.60;99.90
14236;DHT22;7202;50.718;7.072;2023-10-19T00:26:07;11.60;99.90
14236;DHT22;7202;50.718;7.072;2023-10-19T00:28:41;11.70;99.90
14236;DHT22;7202;50.718;7.072;2023-10-19T00:31:12;11.70;99.90
14236;DHT22;7202;50.718;7.072;2023-10-19T00:33:40;11.70;99.90
14236;DHT22;7202;50.718;7.072;2023-10-19T00:36:10;11.70;99.90
14236;DHT22;7202;50.718;7.072;2023-10-19T00:38:41;11.70;99.90
14236;DHT22;7202;50.718;7.072;2023-10-19T00:41:21;11.80;99.90
14236;DHT22;7202;50.718;7.072;2023-10-19T00:43:53;11.70;99.90
14236;DHT22;7202;50.718;7.072;2023-10-19T00:46:25;11.70;99.90
14236;DHT22;7202;50.718;7.072;2023-10-19T00:49:01;11.70;99.90
14236;DHT22;7202;50.718;7.072;2023-10-19T00:51:36;11.70;99.90
14236;DHT22;7202;50.718;7.072;2023-10-19T00:54:20;11.60;99.90
14236;DHT22;7202;50.718;7.072;2023-10-19T00:56:54;11.60;99.90
14236;DHT22;7202;50.718;7.072;2023-10-19T00:59:27;11.60;99.90
14236;DHT22;7202;50.718;7.072;2023-10-19T01:01:58;11.60;99.90
14236;DHT22;7202;50.718;7.072;2023-10-19T01:04:44;11.50;99.90
14236;DHT22;7202;50.718;7.072;2023-10-19T01:07:17;11.50;99.90
14236;DHT22;7202;50.718;7.072;2023-10-19T01:09:50;11.50;99.90
14236;DHT22;7202;50.718;7.072;2023-10-19T01:12:22;11.50;99.90
14236;DHT22;7202;50.718;7.072;2023-10-19T01:15:04;11.50;99.90
14236;DHT22;7202;50.718;7.072;2023-10-19T01:17:36;11.40;99.90
14236;DHT22;7202;50.718;7.072;2023-10-19T01:20:08;11.40;99.90
14236;DHT22;7202;50.718;7.072;2023-10-19T01:22:53;11.40;99.90
14236;DHT22;7202;50.718;7.072;2023-10-19T01:25:41;11.40;99.90
14236;DHT22;7202;50.718;7.072;2023-10-19T01:28:13;11.40;99.90
14236;DHT22;7202;50.718;7.072;2023-10-19T01:30:45;11.40;99.90
14236;DHT22;7202;50.718;7.072;2023-10-19T01:33:19;11.40;99.90
14236;DHT22;7202;50.718;7.072;2023-10-19T01:35:49;11.40;99.90
14236;DHT22;7202;50.718;7.072;2023-10-19T01:38:37;11.40;99.90
14236;DHT22;7202;50.718;7.072;2023-10-19T01:41:06;11.30;99.90
14236;DHT22;7202;50.718;7.072;2023-10-19T01:43:41;11.30;99.90
14236;DHT22;7202;50.718;7.072;2023-10-19T01:46:11;11.40;99.90
14236;DHT22;7202;50.718;7.072;2023-10-19T01:48:40;11.40;99.90
14236;DHT22;7202;50.718;7.072;2023-10-19T01:51:10;11.40;99.90
14236;DHT22;7202;50.718;7.072;2023-10-19T01:53:40;11.50;99.90
14236;DHT22;7202;50.718;7.072;2023-10-19T01:56:11;11.50;99.90
14236;DHT22;7202;50.718;7.072;2023-10-19T01:58:41;11.50;99.90
14236;DHT22;7202;50.718;7.072;2023-10-19T02:01:10;11.50;99.90
14236;DHT22;7202;50.718;7.072;2023-10-19T02:03:42;11.50;99.90
14236;DHT22;7202;50.718;7.072;2023-10-19T02:06:13;11.60;99.90
14236;DHT22;7202;50.718;7.072;2023-10-19T02:08:48;11.60;99.90
14236;DHT22;7202;50.718;7.072;2023-10-19T02:11:19;11.50;99.90
14236;DHT22;7202;50.718;7.072;2023-10-19T02:13:49;11.60;99.90
14236;DHT22;7202;50.718;7.072;2023-10-19T02:16:19;11.60;99.90
14236;DHT22;7202;50.718;7.072;2023-10-19T02:18:50;11.60;99.90
14236;DHT22;7202;50.718;7.072;2023-10-19T02:21:19;11.60;99.90
14236;DHT22;7202;50.718;7.072;2023-10-19T02:23:51;11.50;99.90
14236;DHT22;7202;50.718;7.072;2023-10-19T02:26:20;11.50;99.90
14236;DHT22;7202;50.718;7.072;2023-10-19T02:28:50;11.50;99.90
14236;DHT22;7202;50.718;7.072;2023-10-19T02:31:19;11.60;99.90
14236;DHT22;7202;50.718;7.072;2023-10-19T02:33:50;11.60;99.90
14236;DHT22;7202;50.718;7.072;2023-10-19T02:36:19;11.70;99.90
14236;DHT22;7202;50.718;7.072;2023-10-19T02:38:48;11.70;99.90
14236;DHT22;7202;50.718;7.072;2023-10-19T02:41:21;11.70;99.90
14236;DHT22;7202;50.718;7.072;2023-10-19T02:43:48;11.70;99.90
14236;DHT22;7202;50.718;7.072;2023-10-19T02:46:28;11.80;99.90
14236;DHT22;7202;50.718;7.072;2023-10-19T02:48:56;11.80;99.90
14236;DHT22;7202;50.718;7.072;2023-10-19T02:51:25;11.80;99.90
14236;DHT22;7202;50.718;7.072;2023-10-19T02:53:53;11.70;99.90
14236;DHT22;7202;50.718;7.072;2023-10-19T02:56:23;11.70;99.90
14236;DHT22;7202;50.718;7.072;2023-10-19T02:58:51;11.70;99.90
14236;DHT22;7202;50.718;7.072;2023-10-19T03:01:21;11.70;99.90
14236;DHT22;7202;50.718;7.072;2023-10-19T03:03:50;11.70;99.90
14236;DHT22;7202;50.718;7.072;2023-10-19T03:06:21;11.70;99.90
14236;DHT22;7202;50.718;7.072;2023-10-19T03:08:49;11.70;99.90
14236;DHT22;7202;50.718;7.072;2023-10-19T03:11:26;11.80;99.90
14236;DHT22;7202;50.718;7.072;2023-10-19T03:13:54;11.80;99.90
14236;DHT22;7202;50.718;7.072;2023-10-19T03:16:24;11.70;99.90
14236;DHT22;7202;50.718;7.072;2023-10-19T03:18:57;11.70;99.90
14236;DHT22;7202;50.718;7.072;2023-10-19T03:21:26;11.70;99.90
14236;DHT22;7202;50.718;7.072;2023-10-19T03:23:55;11.70;99.90
14236;DHT22;7202;50.718;7.072;2023-10-19T03:26:27;11.60;99.90
14236;DHT22;7202;50.718;7.072;2023-10-19T03:28:58;11.60;99.90
14236;DHT22;7202;50.718;7.072;2023-10-19T03:31:36;11.60;99.90
14236;DHT22;7202;50.718;7.072;2023-10-19T03:34:10;11.60;99.90
14236;DHT22;7202;50.718;7.072;2023-10-19T03:36:40;11.50;99.90
14236;DHT22;7202;50.718;7.072;2023-10-19T03:39:10;11.50;99.90
14236;DHT22;7202;50.718;7.072;2023-10-19T03:41:46;11.50;99.90
14236;DHT22;7202;50.718;7.072;2023-10-19T03:44:18;11.50;99.90
14236;DHT22;7202;50.718;7.072;2023-10-19T03:46:51;11.40;99.90
14236;DHT22;7202;50.718;7.072;2023-10-19T03:49:25;11.40;99.90
14236;DHT22;7202;50.718;7.072;2023-10-19T03:52:00;11.40;99.90
14236;DHT22;7202;50.718;7.072;2023-10-19T03:54:49;11.40;99.90
14236;DHT22;7202;50.718;7.072;2023-10-19T03:57:19;11.40;99.90
14236;DHT22;7202;50.718;7.072;2023-10-19T03:59:51;11.30;99.90
14236;DHT22;7202;50.718;7.072;2023-10-19T04:02:20;11.30;99.90
14236;DHT22;7202;50.718;7.072;2023-10-19T04:04:49;11.40;99.90
14236;DHT22;7202;50.718;7.072;2023-10-19T04:07:19;11.40;99.90
14236;DHT22;7202;50.718;7.072;2023-10-19T04:09:50;11.40;99.90
14236;DHT22;7202;50.718;7.072;2023-10-19T04:12:28;11.50;99.90
14236;DHT22;7202;50.718;7.072;2023-10-19T04:14:59;11.50;99.90
14236;DHT22;7202;50.718;7.072;2023-10-19T04:17:36;11.60;99.90
14236;DHT22;7202;50.718;7.072;2023-10-19T04:20:07;11.60;99.90
14236;DHT22;7202;50.718;7.072;2023-10-19T04:22:53;11.70;99.90
14236;DHT22;7202;50.718;7.072;2023-10-19T04:25:22;11.70;99.90
14236;DHT22;7202;50.718;7.072;2023-10-19T04:27:54;11.80;99.90
14236;DHT22;7202;50.718;7.072;2023-10-19T04:30:24;11.90;99.90
14236;DHT22;7202;50.718;7.072;2023-10-19T04:32:53;11.90;99.90
14236;DHT22;7202;50.718;7.072;2023-10-19T04:35:25;11.90;99.90
14236;DHT22;7202;50.718;7.072;2023-10-19T04:37:57;12.00;99.90
14236;DHT22;7202;50.718;7.072;2023-10-19T04:40:27;12.00;99.90
14236;DHT22;7202;50.718;7.072;2023-10-19T04:42:57;12.10;99.90
14236;DHT22;7202;50.718;7.072;2023-10-19T04:45:27;12.10;99.90
14236;DHT22;7202;50.718;7.072;2023-10-19T04:47:56;12.10;99.90
14236;DHT22;7202;50.718;7.072;2023-10-19T04:50:25;12.10;99.90
14236;DHT22;7202;50.718;7.072;2023-10-19T04:52:54;12.20;99.90
14236;DHT22;7202;50.718;7.072;2023-10-19T04:55:22;12.20;99.90
14236;DHT22;7202;50.718;7.072;2023-10-19T04:57:51;12.20;99.90
14236;DHT22;7202;50.718;7.072;2023-10-19T05:00:21;12.20;99.90
14236;DHT22;7202;50.718;7.072;2023-10-19T05:02:51;12.30;99.90
14236;DHT22;7202;50.718;7.072;2023-10-19T05:05:20;12.20;99.90
14236;DHT22;7202;50.718;7.072;2023-10-19T05:07:49;12.20;99.90
14236;DHT22;7202;50.718;7.072;2023-10-19T05:10:17;12.30;99.90
14236;DHT22;7202;50.718;7.072;2023-10-19T05:12:47;12.30;99.90
14236;DHT22;7202;50.718;7.072;2023-10-19T05:15:15;12.40;99.90
14236;DHT22;7202;50.718;7.072;2023-10-19T05:17:46;12.40;99.90
14236;DHT22;7202;50.718;7.072;2023-10-19T05:20:15;12.40;99.90
14236;DHT22;7202;50.718;7.072;2023-10-19T05:22:44;12.40;99.90
14236;DHT22;7202;50.718;7.072;2023-10-19T05:25:12;12.40;99.90
14236;DHT22;7202;50.718;7.072;2023-10-19T05:27:41;12.40;99.90
14236;DHT22;7202;50.718;7.072;2023-10-19T05:30:13;12.40;99.90
14236;DHT22;7202;50.718;7.072;2023-10-19T05:32:41;12.40;99.90
14236;DHT22;7202;50.718;7.072;2023-10-19T05:35:12;12.50;99.90
14236;DHT22;7202;50.718;7.072;2023-10-19T05:37:46;12.50;99.90
14236;DHT22;7202;50.718;7.072;2023-10-19T05:40:16;12.50;99.90
14236;DHT22;7202;50.718;7.072;2023-10-19T05:42:46;12.50;99.90
14236;DHT22;7202;50.718;7.072;2023-10-19T05:45:15;12.50;99.90
14236;DHT22;7202;50.718;7.072;2023-10-19T05:47:43;12.60;99.90
14236;DHT22;7202;50.718;7.072;2023-10-19T05:50:14;12.60;99.90
14236;DHT22;7202;50.718;7.072;2023-10-19T05:52:43;12.60;99.90
14236;DHT22;7202;50.718;7.072;2023-10-19T05:55:12;12.60;99.90
14236;DHT22;7202;50.718;7.072;2023-10-19T05:57:40;12.60;99.90
14236;DHT22;7202;50.718;7.072;2023-10-19T06:00:11;12.60;99.90
14236;DHT22;7202;50.718;7.072;2023-10-19T06:02:43;12.60;99.90
14236;DHT22;7202;50.718;7.072;2023-10-19T06:05:14;12.60;99.90
14236;DHT22;7202;50.718;7.072;2023-10-19T06:07:44;12.60;99.90
14236;DHT22;7202;50.718;7.072;2023-10-19T06:10:14;12.60;99.90
14236;DHT22;7202;50.718;7.072;2023-10-19T06:12:45;12.70;99.90
14236;DHT22;7202;50.718;7.072;2023-10-19T06:15:15;12.70;99.90
14236;DHT22;7202;50.718;7.072;2023-10-19T06:17:44;12.70;99.90
14236;DHT22;7202;50.718;7.072;2023-10-19T06:20:17;12.70;99.90
14236;DHT22;7202;50.718;7.072;2023-10-19T06:22:51;12.80;99.90
14236;DHT22;7202;50.718;7.072;2023-10-19T06:25:23;12.80;99.90
14236;DHT22;7202;50.718;7.072;2023-10-19T06:27:55;12.80;99.90
14236;DHT22;7202;50.718;7.072;2023-10-19T06:30:25;12.80;99.90
14236;DHT22;7202;50.718;7.072;2023-10-19T06:32:55;12.80;99.90
14236;DHT22;7202;50.718;7.072;2023-10-19T06:35:29;12.90;99.90
14236;DHT22;7202;50.718;7.072;2023-10-19T06:37:59;12.90;99.90
14236;DHT22;7202;50.718;7.072;2023-10-19T06:40:28;12.90;99.90
14236;DHT22;7202;50.718;7.072;2023-10-19T06:42:57;13.00;99.90
14236;DHT22;7202;50.718;7.072;2023-10-19T06:45:26;13.00;99.90
14236;DHT22;7202;50.718;7.072;2023-10-19T06:47:57;13.00;99.90
14236;DHT22;7202;50.718;7.072;2023-10-19T06:50:29;13.00;99.90
14236;DHT22;7202;50.718;7.072;2023-10-19T06:52:58;13.00;99.90
14236;DHT22;7202;50.718;7.072;2023-10-19T06:55:27;13.10;99.90
14236;DHT22;7202;50.718;7.072;2023-10-19T06:57:56;13.10;99.90
14236;DHT22;7202;50.718;7.072;2023-10-19T07:00:24;13.10;99.90
14236;DHT22;7202;50.718;7.072;2023-10-19T07:02:57;13.10;99.90
14236;DHT22;7202;50.718;7.072;2023-10-19T07:05:29;13.20;99.90
14236;DHT22;7202;50.718;7.072;2023-10-19T07:07:58;13.20;99.90
14236;DHT22;7202;50.718;7.072;2023-10-19T07:10:28;13.20;99.90
14236;DHT22;7202;50.718;7.072;2023-10-19T07:12:57;13.20;99.90
14236;DHT22;7202;50.718;7.072;2023-10-19T07:15:26;13.30;99.90
14236;DHT22;7202;50.718;7.072;2023-10-19T07:17:57;13.30;99.90
14236;DHT22;7202;50.718;7.072;2023-10-19T07:20:26;13.30;99.90
14236;DHT22;7202;50.718;7.072;2023-10-19T07:22:59;13.40;99.90
14236;DHT22;7202;50.718;7.072;2023-10-19T07:25:30;13.40;99.90
14236;DHT22;7202;50.718;7.072;2023-10-19T07:27:59;13.40;99.90
14236;DHT22;7202;50.718;7.072;2023-10-19T07:30:28;13.40;99.90
14236;DHT22;7202;50.718;7.072;2023-10-19T07:32:58;13.40;99.90
14236;DHT22;7202;50.718;7.072;2023-10-19T07:35:27;13.50;99.90
14236;DHT22;7202;50.718;7.072;2023-10-19T07:38:02;13.50;99.90
14236;DHT22;7202;50.718;7.072;2023-10-19T07:40:31;13.50;99.90
14236;DHT22;7202;50.718;7.072;2023-10-19T07:43:03;13.50;99.90
14236;DHT22;7202;50.718;7.072;2023-10-19T07:45:32;13.50;99.90
14236;DHT22;7202;50.718;7.072;2023-10-19T07:48:02;13.60;99.90
14236;DHT22;7202;50.718;7.072;2023-10-19T07:50:35;13.60;99.90
14236;DHT22;7202;50.718;7.072;2023-10-19T07:53:05;13.60;99.90
14236;DHT22;7202;50.718;7.072;2023-10-19T07:55:33;13.60;99.90
14236;DHT22;7202;50.718;7.072;2023-10-19T07:58:02;13.70;99.90
14236;DHT22;7202;50.718;7.072;2023-10-19T08:00:32;13.70;99.90
14236;DHT22;7202;50.718;7.072;2023-10-19T08:03:02;13.80;99.90
14236;DHT22;7202;50.718;7.072;2023-10-19T08:05:32;13.80;99.90
14236;DHT22;7202;50.718;7.072;2023-10-19T08:08:02;13.90;99.90
14236;DHT22;7202;50.718;7.072;2023-10-19T08:10:33;13.90;99.90
14236;DHT22;7202;50.718;7.072;2023-10-19T08:13:03;14.00;99.90
14236;DHT22;7202;50.718;7.072;2023-10-19T08:15:31;14.00;99.90
14236;DHT22;7202;50.718;7.072;2023-10-19T08:18:00;14.10;99.90
14236;DHT22;7202;50.718;7.072;2023-10-19T08:20:31;14.20;99.90
14236;DHT22;7202;50.718;7.072;2023-10-19T08:23:04;14.20;99.90
14236;DHT22;7202;50.718;7.072;2023-10-19T08:25:35;14.30;99.90
14236;DHT22;7202;50.718;7.072;2023-10-19T08:28:22;14.40;99.90
14236;DHT22;7202;50.718;7.072;2023-10-19T08:30:51;14.40;99.90
14236;DHT22;7202;50.718;7.072;2023-10-19T08:33:28;14.40;99.90
14236;DHT22;7202;50.718;7.072;2023-10-19T08:36:00;14.50;99.90
14236;DHT22;7202;50.718;7.072;2023-10-19T08:38:29;14.50;99.90
14236;DHT22;7202;50.718;7.072;2023-10-19T08:40:59;14.50;99.90
14236;DHT22;7202;50.718;7.072;2023-10-19T08:43:29;14.50;99.90
14236;DHT22;7202;50.718;7.072;2023-10-19T08:46:00;14.50;99.90
14236;DHT22;7202;50.718;7.072;2023-10-19T08:48:33;14.50;99.90
14236;DHT22;7202;50.718;7.072;2023-10-19T08:51:08;14.50;99.90
14236;DHT22;7202;50.718;7.072;2023-10-19T08:53:38;14.60;99.90
14236;DHT22;7202;50.718;7.072;2023-10-19T08:56:09;14.60;99.90
14236;DHT22;7202;50.718;7.072;2023-10-19T08:58:39;14.60;99.90
14236;DHT22;7202;50.718;7.072;2023-10-19T09:01:08;14.70;99.90
14236;DHT22;7202;50.718;7.072;2023-10-19T09:03:38;14.80;99.90
14236;DHT22;7202;50.718;7.072;2023-10-19T09:06:08;14.80;99.90
14236;DHT22;7202;50.718;7.072;2023-10-19T09:08:40;14.90;99.90
14236;DHT22;7202;50.718;7.072;2023-10-19T09:11:11;14.90;99.90
14236;DHT22;7202;50.718;7.072;2023-10-19T09:13:44;14.90;99.90
14236;DHT22;7202;50.718;7.072;2023-10-19T09:16:15;15.00;99.90
14236;DHT22;7202;50.718;7.072;2023-10-19T09:18:44;15.00;99.90
14236;DHT22;7202;50.718;7.072;2023-10-19T09:21:16;15.10;99.90
14236;DHT22;7202;50.718;7.072;2023-10-19T09:23:51;15.20;99.90
14236;DHT22;7202;50.718;7.072;2023-10-19T09:26:22;15.30;99.90
14236;DHT22;7202;50.718;7.072;2023-10-19T09:28:52;15.50;99.90
14236;DHT22;7202;50.718;7.072;2023-10-19T09:31:21;15.60;99.90
14236;DHT22;7202;50.718;7.072;2023-10-19T09:33:52;15.70;99.90
14236;DHT22;7202;50.718;7.072;2023-10-19T09:36:21;15.70;99.90
14236;DHT22;7202;50.718;7.072;2023-10-19T09:38:54;15.80;99.90
14236;DHT22;7202;50.718;7.072;2023-10-19T09:41:26;15.90;99.90
14236;DHT22;7202;50.718;7.072;2023-10-19T09:44:01;15.90;99.90
14236;DHT22;7202;50.718;7.072;2023-10-19T09:46:32;16.00;99.90
14236;DHT22;7202;50.718;7.072;2023-10-19T09:49:04;16.00;99.90
14236;DHT22;7202;50.718;7.072;2023-10-19T09:51:34;16.10;99.90
14236;DHT22;7202;50.718;7.072;2023-10-19T09:54:11;16.10;99.90
14236;DHT22;7202;50.718;7.072;2023-10-19T09:56:49;16.20;99.90
14236;DHT22;7202;50.718;7.072;2023-10-19T09:59:35;16.30;99.90
14236;DHT22;7202;50.718;7.072;2023-10-19T10:02:08;16.30;99.90
14236;DHT22;7202;50.718;7.072;2023-10-19T10:04:41;16.40;99.90
14236;DHT22;7202;50.718;7.072;2023-10-19T10:07:13;16.60;99.90
14236;DHT22;7202;50.718;7.072;2023-10-19T10:09:58;16.60;99.90
14236;DHT22;7202;50.718;7.072;2023-10-19T10:12:28;16.70;99.90
14236;DHT22;7202;50.718;7.072;2023-10-19T10:14:58;16.80;99.90
14236;DHT22;7202;50.718;7.072;2023-10-19T10:17:29;16.90;99.90
14236;DHT22;7202;50.718;7.072;2023-10-19T10:20:34;16.90;99.90
14236;DHT22;7202;50.718;7.072;2023-10-19T10:23:21;17.00;99.90
14236;DHT22;7202;50.718;7.072;2023-10-19T10:25:52;17.00;99.90
14236;DHT22;7202;50.718;7.072;2023-10-19T10:28:22;17.00;99.90
14236;DHT22;7202;50.718;7.072;2023-10-19T10:31:10;16.90;99.90
14236;DHT22;7202;50.718;7.072;2023-10-19T10:33:43;16.90;99.90
14236;DHT22;7202;50.718;7.072;2023-10-19T10:36:14;16.80;99.90
14236;DHT22;7202;50.718;7.072;2023-10-19T10:38:45;16.80;99.90
14236;DHT22;7202;50.718;7.072;2023-10-19T10:41:20;16.70;99.90
14236;DHT22;7202;50.718;7.072;2023-10-19T10:43:51;16.70;99.90
14236;DHT22;7202;50.718;7.072;2023-10-19T10:46:22;16.70;99.90
14236;DHT22;7202;50.718;7.072;2023-10-19T10:48:51;16.70;99.90
14236;DHT22;7202;50.718;7.072;2023-10-19T10:51:21;16.70;99.90
14236;DHT22;7202;50.718;7.072;2023-10-19T10:53:51;16.70;99.90
14236;DHT22;7202;50.718;7.072;2023-10-19T10:56:21;16.70;99.90
14236;DHT22;7202;50.718;7.072;2023-10-19T10:58:51;16.70;99.90
14236;DHT22;7202;50.718;7.072;2023-10-19T11:01:28;16.60;99.90
14236;DHT22;7202;50.718;7.072;2023-10-19T11:04:07;16.60;99.90
14236;DHT22;7202;50.718;7.072;2023-10-19T11:06:50;16.60;99.90
14236;DHT22;7202;50.718;7.072;2023-10-19T11:09:19;16.60;99.90
14236;DHT22;7202;50.718;7.072;2023-10-19T11:11:49;16.70;99.90
14236;DHT22;7202;50.718;7.072;2023-10-19T11:14:20;16.70;99.90
14236;DHT22;7202;50.718;7.072;2023-10-19T11:16:52;16.70;99.90
14236;DHT22;7202;50.718;7.072;2023-10-19T11:19:21;16.70;99.90
14236;DHT22;7202;50.718;7.072;2023-10-19T11:21:53;16.70;99.90
14236;DHT22;7202;50.718;7.072;2023-10-19T11:24:27;16.80;99.90
14236;DHT22;7202;50.718;7.072;2023-10-19T11:27:01;16.80;99.90
14236;DHT22;7202;50.718;7.072;2023-10-19T11:29:31;16.80;99.90
14236;DHT22;7202;50.718;7.072;2023-10-19T11:32:01;16.80;99.90
14236;DHT22;7202;50.718;7.072;2023-10-19T11:34:30;16.80;99.90
14236;DHT22;7202;50.718;7.072;2023-10-19T11:37:02;16.90;99.90
14236;DHT22;7202;50.718;7.072;2023-10-19T11:39:32;16.90;99.90
14236;DHT22;7202;50.718;7.072;2023-10-19T11:42:01;16.80;99.90
14236;DHT22;7202;50.718;7.072;2023-10-19T11:44:31;16.80;99.90
14236;DHT22;7202;50.718;7.072;2023-10-19T11:47:00;16.80;99.90
14236;DHT22;7202;50.718;7.072;2023-10-19T11:49:29;16.80;99.90
14236;DHT22;7202;50.718;7.072;2023-10-19T11:51:58;16.80;99.90
14236;DHT22;7202;50.718;7.072;2023-10-19T11:54:26;16.80;99.90
14236;DHT22;7202;50.718;7.072;2023-10-19T11:56:55;16.70;99.90
14236;DHT22;7202;50.718;7.072;2023-10-19T11:59:24;16.70;99.90
14236;DHT22;7202;50.718;7.072;2023-10-19T12:01:54;16.70;99.90
14236;DHT22;7202;50.718;7.072;2023-10-19T12:04:24;16.70;99.90
14236;DHT22;7202;50.718;7.072;2023-10-19T12:06:54;16.60;99.90
14236;DHT22;7202;50.718;7.072;2023-10-19T12:09:22;16.60;99.90
14236;DHT22;7202;50.718;7.072;2023-10-19T12:11:52;16.60;99.90
14236;DHT22;7202;50.718;7.072;2023-10-19T12:14:22;16.60;99.90
14236;DHT22;7202;50.718;7.072;2023-10-19T12:16:50;16.60;99.90
14236;DHT22;7202;50.718;7.072;2023-10-19T12:19:22;16.60;99.90
14236;DHT22;7202;50.718;7.072;2023-10-19T12:21:51;16.70;99.90
14236;DHT22;7202;50.718;7.072;2023-10-19T12:24:19;16.70;99.90
14236;DHT22;7202;50.718;7.072;2023-10-19T12:26:48;16.70;99.90
14236;DHT22;7202;50.718;7.072;2023-10-19T12:29:18;16.70;99.90
14236;DHT22;7202;50.718;7.072;2023-10-19T12:31:48;16.70;99.90
14236;DHT22;7202;50.718;7.072;2023-10-19T12:34:17;16.70;99.90
14236;DHT22;7202;50.718;7.072;2023-10-19T12:36:47;16.70;99.90
14236;DHT22;7202;50.718;7.072;2023-10-19T12:39:17;16.70;99.90
14236;DHT22;7202;50.718;7.072;2023-10-19T12:41:59;16.70;99.90
14236;DHT22;7202;50.718;7.072;2023-10-19T12:44:28;16.60;99.90
14236;DHT22;7202;50.718;7.072;2023-10-19T12:46:59;16.50;99.90
14236;DHT22;7202;50.718;7.072;2023-10-19T12:49:28;16.50;99.90
14236;DHT22;7202;50.718;7.072;2023-10-19T12:51:58;16.50;99.90
14236;DHT22;7202;50.718;7.072;2023-10-19T12:54:28;16.50;99.90
14236;DHT22;7202;50.718;7.072;2023-10-19T12:56:56;16.50;99.90
14236;DHT22;7202;50.718;7.072;2023-10-19T12:59:25;16.40;99.90
14236;DHT22;7202;50.718;7.072;2023-10-19T13:01:53;16.50;99.90
14236;DHT22;7202;50.718;7.072;2023-10-19T13:04:25;16.50;99.90
14236;DHT22;7202;50.718;7.072;2023-10-19T13:06:59;16.40;99.90
14236;DHT22;7202;50.718;7.072;2023-10-19T13:09:30;16.40;99.90
14236;DHT22;7202;50.718;7.072;2023-10-19T13:12:00;16.40;99.90
14236;DHT22;7202;50.718;7.072;2023-10-19T13:14:28;16.40;99.90
14236;DHT22;7202;50.718;7.072;2023-10-19T13:16:57;16.40;99.90
14236;DHT22;7202;50.718;7.072;2023-10-19T13:19:26;16.40;99.90
14236;DHT22;7202;50.718;7.072;2023-10-19T13:21:54;16.40;99.90
14236;DHT22;7202;50.718;7.072;2023-10-19T13:24:27;16.30;99.90
14236;DHT22;7202;50.718;7.072;2023-10-19T13:26:58;16.30;99.90
14236;DHT22;7202;50.718;7.072;2023-10-19T13:29:27;16.30;99.90
14236;DHT22;7202;50.718;7.072;2023-10-19T13:31:55;16.30;99.90
14236;DHT22;7202;50.718;7.072;2023-10-19T13:34:24;16.30;99.90
14236;DHT22;7202;50.718;7.072;2023-10-19T13:36:53;16.20;99.90
14236;DHT22;7202;50.718;7.072;2023-10-19T13:39:23;16.20;99.90
14236;DHT22;7202;50.718;7.072;2023-10-19T13:41:53;16.20;99.90
14236;DHT22;7202;50.718;7.072;2023-10-19T13:44:22;16.10;99.90
14236;DHT22;7202;50.718;7.072;2023-10-19T13:46:52;16.10;99.90
14236;DHT22;7202;50.718;7.072;2023-10-19T13:49:21;16.10;99.90
14236;DHT22;7202;50.718;7.072;2023-10-19T13:51:50;16.10;99.90
14236;DHT22;7202;50.718;7.072;2023-10-19T13:54:19;16.10;99.90
14236;DHT22;7202;50.718;7.072;2023-10-19T13:56:48;16.10;99.90
14236;DHT22;7202;50.718;7.072;2023-10-19T13:59:18;16.10;99.90
14236;DHT22;7202;50.718;7.072;2023-10-19T14:01:47;16.10;99.90
14236;DHT22;7202;50.718;7.072;2023-10-19T14:04:15;16.10;99.90
14236;DHT22;7202;50.718;7.072;2023-10-19T14:06:44;16.10;99.90
14236;DHT22;7202;50.718;7.072;2023-10-19T14:09:16;16.10;99.90
14236;DHT22;7202;50.718;7.072;2023-10-19T14:11:45;16.10;99.90
14236;DHT22;7202;50.718;7.072;2023-10-19T14:14:13;16.10;99.90
14236;DHT22;7202;50.718;7.072;2023-10-19T14:16:44;16.10;99.90
14236;DHT22;7202;50.718;7.072;2023-10-19T14:19:13;16.10;99.90
14236;DHT22;7202;50.718;7.072;2023-10-19T14:21:43;16.10;99.90
14236;DHT22;7202;50.718;7.072;2023-10-19T14:24:13;16.10;99.90
14236;DHT22;7202;50.718;7.072;2023-10-19T14:26:42;16.10;99.90
14236;DHT22;7202;50.718;7.072;2023-10-19T14:29:11;16.20;99.90
14236;DHT22;7202;50.718;7.072;2023-10-19T14:31:40;16.20;99.90
14236;DHT22;7202;50.718;7.072;2023-10-19T14:34:10;16.20;99.90
14236;DHT22;7202;50.718;7.072;2023-10-19T14:36:39;16.20;99.90
14236;DHT22;7202;50.718;7.072;2023-10-19T14:39:07;16.10;99.90
14236;DHT22;7202;50.718;7.072;2023-10-19T14:41:36;16.20;99.90
14236;DHT22;7202;50.718;7.072;2023-10-19T14:44:05;16.20;99.90
14236;DHT22;7202;50.718;7.072;2023-10-19T14:46:34;16.20;99.90
14236;DHT22;7202;50.718;7.072;2023-10-19T14:49:03;16.20;99.90
14236;DHT22;7202;50.718;7.072;2023-10-19T14:51:35;16.20;99.90
14236;DHT22;7202;50.718;7.072;2023-10-19T14:54:03;16.20;99.90
14236;DHT22;7202;50.718;7.072;2023-10-19T14:56:32;16.30;99.90
14236;DHT22;7202;50.718;7.072;2023-10-19T14:59:00;16.30;99.90
14236;DHT22;7202;50.718;7.072;2023-10-19T15:01:32;16.30;99.90
14236;DHT22;7202;50.718;7.072;2023-10-19T15:04:03;16.30;99.90
14236;DHT22;7202;50.718;7.072;2023-10-19T15:06:32;16.40;99.90
14236;DHT22;7202;50.718;7.072;2023-10-19T15:09:07;16.50;99.90
14236;DHT22;7202;50.718;7.072;2023-10-19T15:11:43;16.50;99.90
14236;DHT22;7202;50.718;7.072;2023-10-19T15:14:12;16.60;99.90
14236;DHT22;7202;50.718;7.072;2023-10-19T15:16:41;16.60;99.90
14236;DHT22;7202;50.718;7.072;2023-10-19T15:19:11;16.60;99.90
14236;DHT22;7202;50.718;7.072;2023-10-19T15:21:42;16.70;99.90
14236;DHT22;7202;50.718;7.072;2023-10-19T15:24:12;16.70;99.90
14236;DHT22;7202;50.718;7.072;2023-10-19T15:26:41;16.70;99.90
14236;DHT22;7202;50.718;7.072;2023-10-19T15:29:09;16.70;99.90
14236;DHT22;7202;50.718;7.072;2023-10-19T15:31:38;16.70;99.90
14236;DHT22;7202;50.718;7.072;2023-10-19T15:34:07;16.80;99.90
14236;DHT22;7202;50.718;7.072;2023-10-19T15:36:36;16.80;99.90
14236;DHT22;7202;50.718;7.072;2023-10-19T15:39:04;16.80;99.90
14236;DHT22;7202;50.718;7.072;2023-10-19T15:41:34;16.80;99.90
14236;DHT22;7202;50.718;7.072;2023-10-19T15:44:03;16.70;99.90
14236;DHT22;7202;50.718;7.072;2023-10-19T15:46:33;16.70;99.90
14236;DHT22;7202;50.718;7.072;2023-10-19T15:49:08;16.70;99.90
14236;DHT22;7202;50.718;7.072;2023-10-19T15:51:39;16.80;99.90
14236;DHT22;7202;50.718;7.072;2023-10-19T15:54:08;16.70;99.90
14236;DHT22;7202;50.718;7.072;2023-10-19T15:56:38;16.70;99.90
14236;DHT22;7202;50.718;7.072;2023-10-19T15:59:07;16.60;99.90
14236;DHT22;7202;50.718;7.072;2023-10-19T16:01:35;16.60;99.90
14236;DHT22;7202;50.718;7.072;2023-10-19T16:04:05;16.50;99.90
14236;DHT22;7202;50.718;7.072;2023-10-19T16:06:33;16.50;99.90
14236;DHT22;7202;50.718;7.072;2023-10-19T16:09:02;16.40;99.90